createdAt,value
2023-04-22T00:00:49.616Z,30.12
2023-04-22T00:03:20.112Z,30.21
2023-04-22T00:05:50.557Z,30.33
2023-04-22T00:08:20.834Z,30.41
2023-04-22T00:10:51.210Z,30.46
2023-04-22T00:13:21.842Z,30.57
2023-04-22T00:15:52.522Z,30.64
2023-04-22T00:18:23.367Z,30.69
2023-04-22T00:20:53.591Z,30.75
2023-04-22T00:23:23.870Z,30.78
2023-04-22T00:25:54.029Z,30.80
2023-04-22T00:28:24.586Z,30.82
2023-04-22T00:30:55.123Z,30.84
2023-04-22T00:33:25.261Z,30.87
2023-04-22T00:35:56.212Z,30.87
2023-04-22T00:38:26.644Z,30.90
2023-04-22T00:40:57.135Z,30.91
2023-04-22T00:43:27.472Z,30.97
2023-04-22T00:45:58.846Z,30.99
2023-04-22T00:48:29.224Z,30.99
2023-04-22T00:50:59.939Z,30.99
2023-04-22T00:53:30.044Z,31.01
2023-04-22T00:56:01.385Z,31.05
2023-04-22T00:58:32.347Z,31.04
2023-04-22T01:01:02.581Z,31.05
2023-04-22T01:03:33.289Z,31.08
2023-04-22T01:06:03.654Z,31.11
2023-04-22T01:08:34.368Z,31.12
2023-04-22T01:11:04.689Z,31.14
2023-04-22T01:13:34.996Z,31.15
2023-04-22T01:16:07.556Z,31.16
2023-04-22T01:18:38.581Z,31.19
2023-04-22T01:21:08.864Z,31.18
2023-04-22T01:23:40.004Z,31.21
2023-04-22T01:26:10.451Z,31.23
2023-04-22T01:28:40.668Z,31.24
2023-04-22T01:31:11.427Z,31.26
2023-04-22T01:33:41.683Z,31.26
2023-04-22T01:36:13.339Z,31.30
2023-04-22T01:38:43.549Z,31.29
2023-04-22T01:41:14.786Z,31.32
2023-04-22T01:43:46.169Z,31.32
2023-04-22T01:46:18.365Z,31.35
2023-04-22T01:48:52.959Z,31.14
2023-04-22T01:51:28.200Z,31.37
2023-04-22T01:53:59.785Z,31.41
2023-04-22T01:56:30.247Z,31.43
2023-04-22T01:59:00.308Z,31.48
2023-04-22T02:01:33.881Z,31.55
2023-04-22T02:04:04.228Z,31.60
2023-04-22T02:06:34.807Z,31.66
2023-04-22T02:09:08.325Z,31.70
2023-04-22T02:11:38.986Z,31.75
2023-04-22T02:14:09.413Z,31.80
2023-04-22T02:16:39.635Z,31.85
2023-04-22T02:19:09.754Z,31.89
2023-04-22T02:21:39.946Z,31.93
2023-04-22T02:24:10.130Z,31.97
2023-04-22T02:26:40.250Z,31.98
2023-04-22T02:29:10.531Z,32.01
2023-04-22T02:31:41.355Z,32.04
2023-04-22T02:34:12.826Z,32.07
2023-04-22T02:36:43.141Z,32.10
2023-04-22T02:39:13.849Z,32.13
2023-04-22T02:41:44.730Z,32.16
2023-04-22T02:44:15.370Z,32.20
2023-04-22T02:46:45.676Z,32.23
2023-04-22T02:49:15.914Z,32.26
2023-04-22T02:51:46.274Z,32.29
2023-04-22T02:54:16.901Z,32.32
2023-04-22T02:56:47.635Z,32.34
2023-04-22T02:59:18.157Z,32.37
2023-04-22T03:01:49.353Z,32.40
2023-04-22T03:04:33.881Z,32.42
2023-04-22T03:07:04.562Z,32.45
2023-04-22T03:09:34.787Z,32.47
2023-04-22T03:12:05.006Z,32.48
2023-04-22T03:14:35.234Z,32.54
2023-04-22T03:17:05.640Z,32.56
2023-04-22T03:19:36.329Z,32.58
2023-04-22T03:22:06.560Z,32.60
2023-04-22T03:24:37.208Z,32.62
2023-04-22T03:27:11.423Z,32.63
2023-04-22T03:29:42.827Z,32.64
2023-04-22T03:32:13.375Z,32.67
2023-04-22T03:34:44.414Z,32.68
2023-04-22T03:37:15.051Z,32.69
2023-04-22T03:39:45.220Z,32.71
2023-04-22T03:42:17.008Z,32.72
2023-04-22T03:44:48.017Z,32.75
2023-04-22T03:47:21.140Z,32.65
2023-04-22T03:49:57.700Z,32.58
2023-04-22T03:52:28.260Z,32.57
2023-04-22T03:55:04.528Z,32.52
2023-04-22T03:57:37.253Z,32.53
2023-04-22T04:00:08.048Z,32.50
2023-04-22T04:02:44.340Z,32.47
2023-04-22T04:05:19.474Z,32.47
2023-04-22T04:07:50.695Z,32.52
2023-04-22T04:10:21.051Z,32.52
2023-04-22T04:12:52.110Z,32.59
2023-04-22T04:15:24.705Z,32.68
2023-04-22T04:17:57.620Z,32.76
2023-04-22T04:20:29.576Z,32.83
2023-04-22T04:22:59.781Z,32.88
2023-04-22T04:25:32.470Z,32.93
2023-04-22T04:28:06.687Z,33.00
2023-04-22T04:30:38.085Z,33.04
2023-04-22T04:33:09.404Z,33.08
2023-04-22T04:35:41.355Z,33.11
2023-04-22T04:38:14.263Z,33.12
2023-04-22T04:40:45.078Z,32.98
2023-04-22T04:43:20.069Z,32.70
2023-04-22T04:45:55.473Z,32.53
2023-04-22T04:48:37.623Z,32.35
2023-04-22T04:51:11.743Z,32.18
2023-04-22T04:53:51.841Z,32.04
2023-04-22T04:56:22.936Z,31.93
2023-04-22T04:58:53.360Z,31.85
2023-04-22T05:01:29.912Z,31.78
2023-04-22T05:04:06.413Z,31.71
2023-04-22T05:06:37.095Z,31.68
2023-04-22T05:09:09.333Z,31.73
2023-04-22T05:11:39.984Z,31.77
2023-04-22T05:14:16.915Z,31.79
2023-04-22T05:16:49.084Z,31.81
2023-04-22T05:19:19.324Z,31.81
2023-04-22T05:21:50.844Z,31.78
2023-04-22T05:24:22.826Z,31.81
2023-04-22T05:26:53.881Z,31.81
2023-04-22T05:29:24.402Z,31.78
2023-04-22T05:31:55.071Z,31.80
2023-04-22T05:34:26.150Z,31.79
2023-04-22T05:36:57.788Z,31.78
2023-04-22T05:39:29.002Z,31.78
2023-04-22T05:42:02.261Z,31.81
2023-04-22T05:44:33.873Z,31.85
2023-04-22T05:47:04.953Z,31.85
2023-04-22T05:49:35.245Z,31.86
2023-04-22T05:52:11.150Z,31.89
2023-04-22T05:55:03.782Z,31.93
2023-04-22T05:57:34.089Z,31.89
2023-04-22T06:00:11.155Z,31.91
2023-04-22T06:02:47.571Z,31.95
2023-04-22T06:05:18.548Z,31.93
2023-04-22T06:07:49.094Z,31.92
2023-04-22T06:10:19.366Z,31.95
2023-04-22T06:12:49.711Z,31.97
2023-04-22T06:15:20.027Z,31.99
2023-04-22T06:17:51.484Z,32.00
2023-04-22T06:20:21.762Z,32.02
2023-04-22T06:22:52.440Z,32.04
2023-04-22T06:25:22.786Z,32.07
2023-04-22T06:27:53.109Z,32.10
2023-04-22T06:30:25.341Z,32.12
2023-04-22T06:32:56.607Z,32.16
2023-04-22T06:35:27.857Z,32.19
2023-04-22T06:37:58.803Z,32.16
2023-04-22T06:40:33.758Z,32.24
2023-04-22T06:43:14.798Z,32.26
2023-04-22T06:46:04.733Z,32.29
2023-04-22T06:49:03.691Z,32.34
2023-04-22T06:51:34.194Z,32.34
2023-04-22T06:54:05.209Z,32.39
2023-04-22T06:56:35.402Z,32.39
2023-04-22T06:59:05.603Z,32.24
2023-04-22T07:01:36.140Z,32.51
2023-04-22T07:04:06.868Z,32.53
2023-04-22T07:06:38.035Z,32.56
2023-04-22T07:09:09.918Z,32.58
2023-04-22T07:11:41.266Z,32.60
2023-04-22T07:14:20.170Z,32.60
2023-04-22T07:16:50.603Z,32.68
2023-04-22T07:19:21.107Z,32.68
2023-04-22T07:21:51.301Z,32.73
2023-04-22T07:24:21.454Z,32.80
2023-04-22T07:26:51.827Z,32.79
2023-04-22T07:29:22.440Z,32.79
2023-04-22T07:31:53.089Z,32.82
2023-04-22T07:34:23.726Z,32.83
2023-04-22T07:36:54.947Z,32.86
2023-04-22T07:39:25.174Z,32.88
2023-04-22T07:41:55.438Z,32.90
2023-04-22T07:44:25.604Z,32.93
2023-04-22T07:46:55.820Z,32.91
2023-04-22T07:49:26.155Z,32.93
2023-04-22T07:51:56.401Z,32.98
2023-04-22T07:54:26.651Z,33.03
2023-04-22T07:56:56.728Z,33.03
2023-04-22T07:59:27.136Z,33.07
2023-04-22T08:01:57.333Z,33.06
2023-04-22T08:04:28.529Z,33.05
2023-04-22T08:06:59.070Z,33.06
2023-04-22T08:09:31.198Z,33.08
2023-04-22T08:12:01.448Z,33.07
2023-04-22T08:14:31.619Z,33.07
2023-04-22T08:17:01.837Z,33.09
2023-04-22T08:19:35.101Z,33.15
2023-04-22T08:22:05.442Z,33.17
2023-04-22T08:24:35.570Z,33.18
2023-04-22T08:27:06.334Z,33.15
2023-04-22T08:29:36.796Z,33.14
2023-04-22T08:32:07.017Z,33.13
2023-04-22T08:34:38.973Z,33.15
2023-04-22T08:37:09.924Z,33.20
2023-04-22T08:39:40.903Z,33.20
2023-04-22T08:42:11.605Z,33.22
2023-04-22T08:44:42.896Z,33.21
2023-04-22T08:47:15.108Z,33.23
2023-04-22T08:49:45.542Z,33.19
2023-04-22T08:52:16.891Z,33.17
2023-04-22T08:54:47.500Z,33.17
2023-04-22T08:57:17.954Z,33.20
2023-04-22T08:59:48.368Z,33.17
2023-04-22T09:02:26.020Z,33.19
2023-04-22T09:04:56.398Z,33.17
2023-04-22T09:07:28.677Z,33.18
2023-04-22T09:09:59.766Z,33.15
2023-04-22T09:12:30.413Z,33.16
2023-04-22T09:15:00.841Z,33.12
2023-04-22T09:17:35.085Z,33.12
2023-04-22T09:20:06.118Z,33.24
2023-04-22T09:22:44.564Z,33.45
2023-04-22T09:25:18.474Z,33.65
2023-04-22T09:27:55.579Z,33.81
2023-04-22T09:30:29.656Z,33.98
2023-04-22T09:33:01.516Z,34.12
2023-04-22T09:35:33.390Z,34.22
2023-04-22T09:38:05.313Z,34.31
2023-04-22T09:40:36.440Z,34.40
2023-04-22T09:43:09.642Z,34.48
2023-04-22T09:45:43.771Z,34.53
2023-04-22T09:48:19.043Z,34.60
2023-04-22T09:50:50.937Z,34.66
2023-04-22T09:53:22.059Z,34.56
2023-04-22T09:55:53.372Z,34.43
2023-04-22T09:58:28.722Z,34.40
2023-04-22T10:01:00.658Z,34.57
2023-04-22T10:03:30.809Z,34.69
2023-04-22T10:06:01.766Z,34.78
2023-04-22T10:08:32.111Z,34.86
2023-04-22T10:11:02.807Z,34.91
2023-04-22T10:13:33.000Z,34.95
2023-04-22T10:16:03.545Z,35.00
2023-04-22T10:18:34.363Z,35.02
2023-04-22T10:21:04.662Z,35.05
2023-04-22T10:23:35.500Z,35.05
2023-04-22T10:26:07.025Z,35.08
2023-04-22T10:28:37.279Z,35.10
2023-04-22T10:31:22.276Z,35.10
2023-04-22T10:33:52.590Z,35.09
2023-04-22T10:36:22.895Z,35.12
2023-04-22T10:38:53.028Z,35.12
2023-04-22T10:41:27.410Z,35.12
2023-04-22T10:44:15.371Z,35.12
2023-04-22T10:46:54.478Z,35.13
2023-04-22T10:49:25.381Z,35.12
2023-04-22T10:52:02.763Z,35.11
2023-04-22T10:54:38.601Z,35.11
2023-04-22T10:57:20.626Z,35.11
2023-04-22T10:59:51.745Z,34.67
2023-04-22T11:02:24.188Z,35.05
2023-04-22T11:05:14.680Z,35.04
2023-04-22T11:07:45.240Z,35.05
2023-04-22T11:10:31.886Z,35.03
2023-04-22T11:13:04.336Z,34.99
2023-04-22T11:15:36.811Z,35.00
2023-04-22T11:18:15.951Z,34.99
2023-04-22T11:20:46.644Z,34.97
2023-04-22T11:23:25.225Z,34.97
2023-04-22T11:26:00.318Z,34.95
2023-04-22T11:28:30.745Z,34.94
2023-04-22T11:31:07.075Z,34.94
2023-04-22T11:33:38.615Z,34.93
2023-04-22T11:36:17.838Z,34.92
2023-04-22T11:39:10.426Z,34.91
2023-04-22T11:41:42.551Z,34.83
2023-04-22T11:44:15.597Z,34.57
2023-04-22T11:46:46.340Z,34.37
2023-04-22T11:49:17.290Z,34.08
2023-04-22T11:51:54.652Z,33.79
2023-04-22T11:54:51.650Z,33.55
2023-04-22T11:57:23.296Z,33.31
2023-04-22T12:00:02.929Z,33.09
2023-04-22T12:02:34.366Z,32.97
2023-04-22T12:05:05.310Z,32.82
2023-04-22T12:07:35.558Z,32.74
2023-04-22T12:10:09.366Z,32.61
2023-04-22T12:12:42.115Z,32.57
2023-04-22T12:15:13.857Z,32.44
2023-04-22T12:17:46.827Z,32.36
2023-04-22T12:20:17.650Z,32.28
2023-04-22T12:22:47.781Z,32.18
2023-04-22T12:25:20.711Z,32.14
2023-04-22T12:27:50.837Z,32.06
2023-04-22T12:30:21.849Z,31.98
2023-04-22T12:32:52.398Z,31.93
2023-04-22T12:35:22.991Z,31.85
2023-04-22T12:37:53.817Z,31.81
2023-04-22T12:40:24.906Z,31.74
2023-04-22T12:42:55.305Z,31.64
2023-04-22T12:45:26.309Z,31.58
2023-04-22T12:47:56.782Z,31.55
2023-04-22T12:50:27.204Z,31.53
2023-04-22T12:52:57.476Z,31.48
2023-04-22T12:55:27.838Z,31.46
2023-04-22T12:57:58.345Z,31.42
2023-04-22T13:00:28.895Z,31.40
2023-04-22T13:02:59.135Z,31.38
2023-04-22T13:05:29.346Z,31.38
2023-04-22T13:08:06.638Z,31.36
2023-04-22T13:10:38.283Z,31.32
2023-04-22T13:13:18.339Z,31.28
2023-04-22T13:15:54.831Z,31.33
2023-04-22T13:18:25.242Z,31.35
2023-04-22T13:20:58.200Z,31.35
2023-04-22T13:23:29.095Z,31.35
2023-04-22T13:26:02.313Z,31.38
2023-04-22T13:28:32.881Z,31.38
2023-04-22T13:31:03.445Z,31.37
2023-04-22T13:33:33.864Z,31.38
2023-04-22T13:36:04.461Z,31.41
2023-04-22T13:38:34.868Z,31.39
2023-04-22T13:41:05.805Z,31.39
2023-04-22T13:43:36.429Z,31.40
2023-04-22T13:46:07.289Z,31.39
2023-04-22T13:48:38.002Z,31.35
2023-04-22T13:51:08.171Z,31.32
2023-04-22T13:53:38.539Z,31.30
2023-04-22T13:56:09.622Z,31.25
2023-04-22T13:58:41.453Z,31.21
2023-04-22T14:01:11.929Z,31.13
2023-04-22T14:03:42.388Z,31.11
2023-04-22T14:06:12.688Z,31.00
2023-04-22T14:08:43.424Z,30.96
2023-04-22T14:11:13.886Z,30.93
2023-04-22T14:13:44.395Z,30.89
2023-04-22T14:16:14.954Z,30.87
2023-04-22T14:18:47.149Z,30.82
2023-04-22T14:21:17.354Z,30.79
2023-04-22T14:23:47.584Z,30.72
2023-04-22T14:26:17.906Z,30.69
2023-04-22T14:28:48.100Z,30.68
2023-04-22T14:31:18.397Z,30.64
2023-04-22T14:33:48.622Z,30.62
2023-04-22T14:36:19.999Z,30.60
2023-04-22T14:38:50.286Z,30.59
2023-04-22T14:41:20.386Z,30.56
2023-04-22T14:43:51.790Z,30.51
2023-04-22T14:46:22.130Z,30.52
2023-04-22T14:48:52.416Z,30.49
2023-04-22T14:51:22.585Z,30.48
2023-04-22T14:53:53.027Z,30.45
2023-04-22T14:56:23.150Z,30.40
2023-04-22T14:58:53.405Z,30.40
2023-04-22T15:01:24.411Z,30.38
2023-04-22T15:03:55.969Z,30.36
2023-04-22T15:06:26.698Z,30.35
2023-04-22T15:08:57.310Z,30.32
2023-04-22T15:11:27.677Z,30.26
2023-04-22T15:13:57.919Z,30.25
2023-04-22T15:16:28.186Z,30.22
2023-04-22T15:18:58.523Z,30.20
2023-04-22T15:21:28.727Z,30.19
2023-04-22T15:23:58.909Z,30.13
2023-04-22T15:26:29.343Z,30.14
2023-04-22T15:28:59.518Z,30.11
2023-04-22T15:31:29.800Z,30.09
2023-04-22T15:33:59.980Z,30.08
2023-04-22T15:36:31.111Z,30.11
2023-04-22T15:39:01.767Z,30.09
2023-04-22T15:41:32.164Z,30.10
2023-04-22T15:44:02.841Z,30.06
2023-04-22T15:46:34.642Z,30.03
2023-04-22T15:49:05.623Z,30.00
2023-04-22T15:51:35.910Z,29.99
2023-04-22T15:54:06.026Z,29.97
2023-04-22T15:56:36.970Z,30.04
2023-04-22T15:59:07.097Z,30.16
2023-04-22T16:01:40.314Z,30.22
2023-04-22T16:04:11.108Z,30.24
2023-04-22T16:06:42.178Z,30.26
2023-04-22T16:09:12.435Z,30.26
2023-04-22T16:11:43.594Z,30.27
2023-04-22T16:14:14.002Z,30.23
2023-04-22T16:16:45.127Z,30.22
2023-04-22T16:19:15.387Z,30.03
2023-04-22T16:21:45.576Z,30.18
2023-04-22T16:24:17.010Z,30.17
2023-04-22T16:26:47.122Z,30.14
2023-04-22T16:29:17.748Z,30.14
2023-04-22T16:31:48.061Z,30.13
2023-04-22T16:34:18.353Z,30.10
2023-04-22T16:36:48.638Z,30.07
2023-04-22T16:39:20.475Z,30.05
2023-04-22T16:41:50.709Z,30.04
2023-04-22T16:44:20.948Z,30.05
2023-04-22T16:46:51.545Z,30.03
2023-04-22T16:49:21.945Z,30.00
2023-04-22T16:51:52.442Z,30.00
2023-04-22T16:54:23.039Z,29.98
2023-04-22T16:56:53.188Z,29.95
2023-04-22T16:59:23.874Z,29.95
2023-04-22T17:01:54.600Z,29.95
2023-04-22T17:04:25.336Z,29.92
2023-04-22T17:06:55.891Z,29.91
2023-04-22T17:09:25.986Z,29.89
2023-04-22T17:11:56.101Z,29.88
2023-04-22T17:14:26.542Z,29.83
2023-04-22T17:16:56.644Z,29.82
2023-04-22T17:19:27.108Z,29.82
2023-04-22T17:21:57.371Z,29.78
2023-04-22T17:24:27.503Z,29.78
2023-04-22T17:26:57.683Z,29.77
2023-04-22T17:29:28.034Z,29.77
2023-04-22T17:31:58.498Z,29.75
2023-04-22T17:34:28.992Z,29.73
2023-04-22T17:36:59.368Z,29.72
2023-04-22T17:39:29.442Z,29.73
2023-04-22T17:42:00.086Z,29.72
2023-04-22T17:44:30.289Z,29.69
2023-04-22T17:47:00.630Z,29.68
2023-04-22T17:49:30.898Z,29.67
2023-04-22T17:52:01.059Z,29.68
2023-04-22T17:54:31.569Z,29.66
2023-04-22T17:57:01.793Z,29.64
2023-04-22T17:59:32.112Z,29.65
2023-04-22T18:02:02.928Z,29.62
2023-04-22T18:04:33.357Z,29.60
2023-04-22T18:07:03.437Z,29.60
2023-04-22T18:09:34.124Z,29.60
2023-04-22T18:12:04.642Z,29.57
2023-04-22T18:14:34.852Z,29.55
2023-04-22T18:17:05.085Z,29.55
2023-04-22T18:19:35.287Z,29.52
2023-04-22T18:22:05.436Z,29.51
2023-04-22T18:24:35.595Z,29.50
2023-04-22T18:27:06.141Z,29.50
2023-04-22T18:29:37.149Z,29.47
2023-04-22T18:32:07.924Z,29.46
2023-04-22T18:34:38.399Z,29.45
2023-04-22T18:37:08.779Z,29.44
2023-04-22T18:39:39.556Z,29.40
2023-04-22T18:42:10.148Z,29.38
2023-04-22T18:44:40.976Z,29.38
2023-04-22T18:47:11.442Z,29.36
2023-04-22T18:49:41.460Z,29.35
2023-04-22T18:52:12.040Z,29.34
2023-04-22T18:54:42.508Z,29.31
2023-04-22T18:57:13.020Z,29.31
2023-04-22T18:59:43.944Z,29.28
2023-04-22T19:02:15.189Z,29.31
2023-04-22T19:04:45.396Z,29.28
2023-04-22T19:07:15.670Z,29.29
2023-04-22T19:09:45.775Z,29.27
2023-04-22T19:12:18.102Z,29.25
2023-04-22T19:14:50.994Z,29.23
2023-04-22T19:17:21.069Z,29.21
2023-04-22T19:19:51.241Z,29.22
2023-04-22T19:22:21.969Z,29.23
2023-04-22T19:24:52.672Z,29.19
2023-04-22T19:27:22.785Z,29.19
2023-04-22T19:29:54.779Z,29.18
2023-04-22T19:32:24.898Z,29.16
2023-04-22T19:34:55.005Z,29.14
2023-04-22T19:37:25.185Z,29.13
2023-04-22T19:39:55.287Z,29.11
2023-04-22T19:42:25.437Z,29.09
2023-04-22T19:44:56.164Z,29.11
2023-04-22T19:47:26.346Z,29.07
2023-04-22T19:49:56.578Z,29.08
2023-04-22T19:52:26.792Z,29.07
2023-04-22T19:55:02.395Z,29.06
2023-04-22T19:57:32.820Z,29.04
2023-04-22T20:00:03.537Z,29.05
2023-04-22T20:02:42.373Z,29.02
2023-04-22T20:05:13.513Z,28.99
2023-04-22T20:07:45.197Z,28.98
2023-04-22T20:10:15.594Z,28.98
2023-04-22T20:12:46.788Z,28.99
2023-04-22T20:15:17.138Z,28.95
2023-04-22T20:17:47.558Z,28.95
2023-04-22T20:20:18.940Z,28.95
2023-04-22T20:22:50.521Z,28.92
2023-04-22T20:25:21.008Z,28.90
2023-04-22T20:27:51.092Z,28.90
2023-04-22T20:30:22.174Z,28.89
2023-04-22T20:32:52.993Z,28.85
2023-04-22T20:35:23.244Z,28.68
2023-04-22T20:37:55.589Z,28.84
2023-04-22T20:40:26.596Z,28.82
2023-04-22T20:42:58.561Z,28.84
2023-04-22T20:45:28.748Z,28.85
2023-04-22T20:47:59.808Z,28.81
2023-04-22T20:50:34.796Z,28.83
2023-04-22T20:53:05.276Z,28.81
2023-04-22T20:55:37.166Z,28.81
2023-04-22T20:58:08.598Z,28.80
2023-04-22T21:00:38.834Z,28.80
2023-04-22T21:03:12.919Z,28.77
2023-04-22T21:05:46.698Z,28.78
2023-04-22T21:08:26.969Z,28.76
2023-04-22T21:10:57.949Z,28.75
2023-04-22T21:13:28.881Z,28.74
2023-04-22T21:16:06.189Z,28.74
2023-04-22T21:18:37.056Z,28.72
2023-04-22T21:21:08.448Z,28.73
2023-04-22T21:23:39.169Z,28.73
2023-04-22T21:26:10.222Z,28.70
2023-04-22T21:28:40.860Z,28.71
2023-04-22T21:31:11.116Z,28.70
2023-04-22T21:33:41.266Z,28.69
2023-04-22T21:36:12.718Z,28.67
2023-04-22T21:38:43.140Z,28.69
2023-04-22T21:41:13.785Z,28.67
2023-04-22T21:43:43.846Z,28.68
2023-04-22T21:46:13.928Z,28.65
2023-04-22T21:48:44.190Z,28.63
2023-04-22T21:51:14.893Z,28.64
2023-04-22T21:53:46.036Z,28.64
2023-04-22T21:56:16.470Z,28.62
2023-04-22T21:58:46.849Z,28.60
2023-04-22T22:01:17.199Z,28.59
2023-04-22T22:03:48.087Z,28.60
2023-04-22T22:06:18.620Z,28.60
2023-04-22T22:08:48.992Z,28.59
2023-04-22T22:11:30.354Z,28.58
2023-04-22T22:14:01.285Z,28.51
2023-04-22T22:16:32.347Z,28.60
2023-04-22T22:19:03.940Z,28.72
2023-04-22T22:21:34.343Z,28.84
2023-04-22T22:24:04.570Z,28.95
2023-04-22T22:26:37.708Z,29.06
2023-04-22T22:29:07.917Z,29.14
2023-04-22T22:31:38.130Z,29.25
2023-04-22T22:34:08.225Z,29.33
2023-04-22T22:36:38.902Z,29.42
2023-04-22T22:39:11.669Z,29.49
2023-04-22T22:41:43.692Z,29.57
2023-04-22T22:44:14.199Z,29.64
2023-04-22T22:46:44.434Z,29.70
2023-04-22T22:49:15.311Z,29.75
2023-04-22T22:51:45.452Z,29.79
2023-04-22T22:54:15.665Z,29.84
2023-04-22T22:56:45.823Z,29.88
2023-04-22T22:59:16.109Z,29.91
2023-04-22T23:01:46.628Z,30.05
2023-04-22T23:04:17.548Z,29.96
2023-04-22T23:06:48.670Z,30.14
2023-04-22T23:09:20.425Z,30.14
2023-04-22T23:11:53.187Z,30.15
2023-04-22T23:14:24.061Z,30.18
2023-04-22T23:16:54.519Z,30.19
2023-04-22T23:19:25.100Z,30.20
2023-04-22T23:21:56.957Z,30.20
2023-04-22T23:24:27.465Z,30.26
2023-04-22T23:26:58.722Z,30.28
2023-04-22T23:29:29.017Z,30.34
2023-04-22T23:32:01.775Z,30.36
2023-04-22T23:34:33.306Z,30.40
2023-04-22T23:37:09.726Z,30.42
2023-04-22T23:39:40.708Z,30.46
2023-04-22T23:42:10.846Z,30.31
2023-04-22T23:44:41.534Z,30.53
2023-04-22T23:47:12.206Z,30.53
2023-04-22T23:49:43.098Z,30.56
2023-04-22T23:52:14.214Z,30.59
2023-04-22T23:54:46.451Z,30.61
2023-04-22T23:57:17.530Z,30.65
2023-04-22T23:59:47.970Z,30.50
